To NAV CANADA Home Page Login to a new session Search on AWWS site Feedback and Comments Disclaimer Vers la page française équivalente Tips FAQ What's new on the site To the Forecasts and Observations / NOTAM section To "File a Flight Plan" website Publications and other links Update of the User's profile FIC Telephone Numbers My Weather Data Folder Route Weather Data Regional Weather Data Local Weather Data To the Forecasts and Observations / NOTAM section
Request Generated 10/17/2017 at 01:51:12 UTC . Weather information available at that time is displayed.

METAR/TAF

WINNIPEG/JAMES ARMSTRONG RICHARDSON INTL/MB    

METAR CYWG 170100Z 25013KT 15SM FEW120 SCT250 14/03 A2977 RMK AC1CI3
SLP091 DENSITY ALT 1100FT=
METAR CYWG 170000Z 25011G16KT 15SM FEW120 BKN250 15/03 A2976 RMK
AC1CI6 SLP087 DENSITY ALT 1200FT=
METAR CYWG 162300Z 25011KT 15SM FEW120 BKN250 17/03 A2975 RMK AC2CI5
CONTRAILS SLP081 DENSITY ALT 1400FT=

TAF CYWG 162338Z 1700/1724 21012KT P6SM FEW120 SCT250
BECMG 1706/1708 17006KT
FM171500 20012KT P6SM SCT150 BKN250
BECMG 1716/1718 22015G25KT
RMK NXT FCST BY 170600Z=
Your time UTC time
Weather data provided by Environment Canada and NAV CANADA